Time;durP1;ratioP1;P1;durP2;ratioP2;P2;SDS_P1;SDS_P2;PMS_P1;PMS_P2;Temp;Humidity;BMP_temperature;BMP_pressure;BME280_temperature;BME280_humidity;BME280_pressure;Samples;Min_cycle;Max_cycle;Signal;HPM_P1;HPM_P2
2023/03/13 00:01:16;;;;;;;1.58;0.60;;;12.10;99.90;;;;;;5092406;28;20032;-76
2023/03/13 00:03:42;;;;;;;1.75;0.52;;;12.10;99.90;;;;;;5092043;28;20028;-73
2023/03/13 00:06:08;;;;;;;2.15;0.95;;;12.10;99.90;;;;;;5091883;28;20039;-74
2023/03/13 00:08:33;;;;;;;2.30;0.60;;;12.20;99.90;;;;;;5091522;28;20020;-74
2023/03/13 00:11:07;;;;;;;1.65;0.40;;;12.20;99.90;;;;;;5092272;28;20353;-74
2023/03/13 00:13:33;;;;;;;3.20;0.90;;;12.20;99.90;;;;;;5091659;28;20024;-81
2023/03/13 00:16:01;;;;;;;3.03;0.90;;;12.30;99.90;;;;;;5091293;28;20036;-81
2023/03/13 00:18:27;;;;;;;1.98;0.68;;;12.20;99.90;;;;;;5091322;28;20490;-78
2023/03/13 00:21:01;;;;;;;0.47;0.30;;;12.20;99.90;;;;;;5092076;28;20032;-77
2023/03/13 00:23:27;;;;;;;1.30;0.73;;;12.10;99.90;;;;;;5091742;28;20107;-77
2023/03/13 00:26:01;;;;;;;2.53;0.70;;;12.10;99.90;;;;;;5092382;28;20059;-79
2023/03/13 00:28:28;;;;;;;0.63;0.20;;;12.10;99.90;;;;;;5092011;28;20081;-77
2023/03/13 00:31:15;;;;;;;2.47;0.30;;;12.10;99.90;;;;;;5092567;28;20103;-77
2023/03/13 00:33:43;;;;;;;0.40;0.10;;;12.10;99.90;;;;;;5090346;28;20185;-76
2023/03/13 00:36:12;;;;;;;0.73;0.32;;;12.10;99.90;;;;;;5092132;28;20070;-76
2023/03/13 00:38:38;;;;;;;2.35;0.60;;;12.00;99.90;;;;;;5091653;28;20204;-76
2023/03/13 00:41:11;;;;;;;0.40;0.30;;;12.00;99.90;;;;;;5092078;28;20475;-75
2023/03/13 00:43:38;;;;;;;0.25;0.20;;;12.00;99.90;;;;;;5091986;28;20064;-76
2023/03/13 00:46:04;;;;;;;0.45;0.20;;;12.00;99.90;;;;;;5092510;28;20035;-76
2023/03/13 00:48:32;;;;;;;0.63;0.20;;;12.00;99.90;;;;;;5091533;28;20111;-77
2023/03/13 00:50:58;;;;;;;0.20;0.20;;;12.00;99.90;;;;;;5092464;28;20024;-78
2023/03/13 00:53:24;;;;;;;0.40;0.30;;;12.00;99.90;;;;;;5091320;28;20030;-78
2023/03/13 00:55:56;;;;;;;0.68;0.25;;;12.00;99.90;;;;;;5091923;28;20035;-77
2023/03/13 00:58:23;;;;;;;0.20;0.20;;;12.00;99.90;;;;;;5091673;28;20028;-81
2023/03/13 01:00:49;;;;;;;0.52;0.10;;;12.00;99.90;;;;;;5091567;28;20112;-76
2023/03/13 01:03:15;;;;;;;0.63;0.20;;;12.00;99.90;;;;;;5092001;28;20058;-76
2023/03/13 01:05:41;;;;;;;1.00;0.10;;;12.00;99.90;;;;;;5090102;28;20042;-74
2023/03/13 01:08:07;;;;;;;0.30;0.15;;;11.90;99.90;;;;;;5091912;28;20050;-76
2023/03/13 01:10:33;;;;;;;0.30;0.20;;;11.90;99.90;;;;;;5091352;28;20032;-75
2023/03/13 01:12:58;;;;;;;0.63;0.50;;;11.90;99.90;;;;;;5091994;28;20118;-75
2023/03/13 01:15:24;;;;;;;0.47;0.47;;;11.90;99.90;;;;;;5091204;28;20177;-76
2023/03/13 01:17:50;;;;;;;0.52;0.52;;;11.90;99.90;;;;;;5090617;28;20081;-75
2023/03/13 01:20:16;;;;;;;0.30;0.30;;;11.90;99.90;;;;;;5091258;28;20061;-74
2023/03/13 01:22:41;;;;;;;1.40;0.63;;;11.90;99.90;;;;;;5089456;28;20020;-74
2023/03/13 01:25:07;;;;;;;0.55;0.45;;;11.90;99.90;;;;;;5091405;28;20046;-74
2023/03/13 01:27:33;;;;;;;0.22;0.22;;;12.00;99.90;;;;;;5091221;28;20125;-75
2023/03/13 01:29:59;;;;;;;0.52;0.22;;;12.00;99.90;;;;;;5089015;28;20056;-75
2023/03/13 01:32:25;;;;;;;0.40;0.20;;;12.10;99.90;;;;;;5090800;28;20370;-75
2023/03/13 01:34:50;;;;;;;1.50;0.60;;;12.10;99.90;;;;;;5091234;28;20016;-75
2023/03/13 01:37:16;;;;;;;0.20;0.20;;;12.00;99.90;;;;;;5091648;28;20032;-75
2023/03/13 01:39:42;;;;;;;0.65;0.43;;;12.00;99.90;;;;;;5089300;28;20097;-75
2023/03/13 01:42:07;;;;;;;1.17;0.30;;;12.00;99.90;;;;;;5090925;28;20486;-75
2023/03/13 01:44:56;;;;;;;0.25;0.25;;;12.00;99.90;;;;;;5090574;28;20324;-75
2023/03/13 01:47:22;;;;;;;1.50;0.40;;;12.00;99.90;;;;;;5091385;28;20135;-75
2023/03/13 01:49:50;;;;;;;0.20;0.20;;;12.00;99.90;;;;;;5090617;28;20031;-75
2023/03/13 01:52:29;;;;;;;0.35;0.20;;;12.10;99.90;;;;;;5091292;28;20039;-74
2023/03/13 01:55:06;;;;;;;0.75;0.20;;;12.10;99.90;;;;;;5091150;28;20028;-74
2023/03/13 01:57:41;;;;;;;0.57;0.28;;;12.20;99.90;;;;;;5090974;28;20028;-75
2023/03/13 02:00:12;;;;;;;1.00;0.50;;;12.10;99.90;;;;;;5091630;28;20093;-75
2023/03/13 02:02:44;;;;;;;0.10;0.10;;;12.00;99.90;;;;;;5090701;28;20423;-75
2023/03/13 02:05:10;;;;;;;0.50;0.38;;;12.00;99.90;;;;;;5090062;28;20028;-75
2023/03/13 02:07:45;;;;;;;0.57;0.28;;;12.00;99.90;;;;;;5091000;28;20077;-75
2023/03/13 02:10:14;;;;;;;1.45;0.30;;;12.00;99.90;;;;;;5091181;28;20213;-75
2023/03/13 02:12:40;;;;;;;1.42;0.40;;;12.10;99.90;;;;;;5090899;28;20089;-76
2023/03/13 02:15:13;;;;;;;1.10;0.73;;;12.10;99.90;;;;;;5091172;28;20021;-75
2023/03/13 02:17:41;;;;;;;3.53;0.88;;;12.10;99.90;;;;;;5091018;28;20028;-75
2023/03/13 02:20:08;;;;;;;3.45;0.73;;;12.00;99.90;;;;;;5091214;28;20020;-75
2023/03/13 02:23:03;;;;;;;1.00;0.40;;;12.10;99.90;;;;;;5090218;28;20170;-75
2023/03/13 02:25:47;;;;;;;2.88;0.55;;;12.00;99.90;;;;;;5088324;28;20096;-75
2023/03/13 02:28:42;;;;;;;2.88;0.70;;;11.90;99.90;;;;;;5090292;28;20103;-75
2023/03/13 02:31:09;;;;;;;1.42;0.90;;;11.90;99.90;;;;;;5085363;28;20043;-75
2023/03/13 02:33:39;;;;;;;3.88;0.90;;;11.90;99.90;;;;;;5089396;28;20023;-75
2023/03/13 02:36:06;;;;;;;6.60;1.40;;;11.90;99.90;;;;;;5090001;28;20505;-75
2023/03/13 02:38:37;;;;;;;7.13;1.23;;;11.90;99.90;;;;;;5089986;28;20080;-75
2023/03/13 02:41:04;;;;;;;8.52;2.15;;;11.90;99.90;;;;;;5091822;28;20030;-74
2023/03/13 02:43:35;;;;;;;8.20;1.50;;;12.00;99.90;;;;;;5094224;28;20126;-75
2023/03/13 02:46:09;;;;;;;6.80;1.73;;;12.00;99.90;;;;;;5093289;28;20051;-74
2023/03/13 02:48:38;;;;;;;4.88;1.65;;;12.10;99.90;;;;;;5093917;28;20510;-75
2023/03/13 02:51:09;;;;;;;8.02;1.75;;;12.00;99.90;;;;;;5094219;28;20541;-75
2023/03/13 02:53:36;;;;;;;8.07;1.73;;;11.90;99.90;;;;;;5093803;28;20463;-75
2023/03/13 02:56:03;;;;;;;6.85;1.83;;;12.00;99.90;;;;;;5094264;28;20044;-75
2023/03/13 02:58:37;;;;;;;14.77;3.05;;;12.00;99.90;;;;;;5093877;28;20351;-79
2023/03/13 03:01:06;;;;;;;10.70;2.38;;;12.00;99.90;;;;;;5093899;28;20047;-74
2023/03/13 03:03:34;;;;;;;10.70;2.47;;;11.90;99.90;;;;;;5093529;28;20044;-75
2023/03/13 03:06:00;;;;;;;11.65;2.55;;;11.90;99.90;;;;;;5093826;28;20426;-75
2023/03/13 03:08:25;;;;;;;10.98;2.42;;;11.90;99.90;;;;;;5093667;28;20032;-75
2023/03/13 03:10:51;;;;;;;11.25;3.10;;;11.90;99.90;;;;;;5093169;28;20039;-75
2023/03/13 03:13:17;;;;;;;11.40;2.20;;;11.90;99.90;;;;;;5093996;28;20036;-75
2023/03/13 03:15:42;;;;;;;16.90;2.53;;;11.80;99.90;;;;;;5093140;28;20083;-76
2023/03/13 03:18:08;;;;;;;10.45;2.55;;;11.90;99.90;;;;;;5094170;28;20459;-75
2023/03/13 03:20:34;;;;;;;13.75;3.35;;;11.90;99.90;;;;;;5093122;28;20024;-75
2023/03/13 03:22:59;;;;;;;13.45;2.60;;;11.80;99.90;;;;;;5093937;28;20147;-76
2023/03/13 03:25:25;;;;;;;13.00;2.90;;;11.80;99.90;;;;;;5093431;28;20028;-74
2023/03/13 03:27:51;;;;;;;16.65;3.58;;;11.80;99.90;;;;;;5093153;28;20474;-73
2023/03/13 03:30:19;;;;;;;13.40;3.13;;;11.80;99.90;;;;;;5093172;28;20064;-74
2023/03/13 03:32:44;;;;;;;15.15;2.45;;;11.70;99.90;;;;;;5092811;28;20149;-75
2023/03/13 03:35:10;;;;;;;16.27;3.28;;;11.80;99.90;;;;;;5092968;28;20109;-75
2023/03/13 03:37:36;;;;;;;9.30;2.83;;;11.80;99.90;;;;;;5091107;28;20534;-75
2023/03/13 03:40:04;;;;;;;7.47;2.38;;;11.80;99.90;;;;;;5093180;28;20028;-74
2023/03/13 03:42:30;;;;;;;3.22;1.20;;;11.70;99.90;;;;;;5093025;28;20032;-81
2023/03/13 03:44:56;;;;;;;5.25;1.02;;;11.70;99.90;;;;;;5093050;28;20077;-77
2023/03/13 03:47:21;;;;;;;4.95;0.90;;;11.60;99.90;;;;;;5092007;28;20101;-75
2023/03/13 03:49:47;;;;;;;3.72;0.95;;;11.50;99.90;;;;;;5092683;28;20173;-76
2023/03/13 03:52:13;;;;;;;3.92;0.90;;;11.50;99.90;;;;;;5092009;28;20552;-75
2023/03/13 03:54:38;;;;;;;3.05;0.85;;;11.40;99.90;;;;;;5092422;28;20020;-75
2023/03/13 03:57:04;;;;;;;2.53;0.75;;;11.40;99.90;;;;;;5092787;28;20435;-76
2023/03/13 03:59:30;;;;;;;2.15;0.60;;;11.30;99.90;;;;;;5093037;28;20435;-75
2023/03/13 04:01:56;;;;;;;1.92;0.47;;;11.20;99.90;;;;;;5092574;28;20138;-75
2023/03/13 04:04:21;;;;;;;4.03;0.75;;;11.20;99.90;;;;;;5092557;28;20039;-77
2023/03/13 04:06:47;;;;;;;3.30;0.60;;;11.20;99.90;;;;;;5092331;28;20095;-79
2023/03/13 04:09:13;;;;;;;2.47;0.57;;;11.10;99.90;;;;;;5091820;28;20120;-79
2023/03/13 04:11:38;;;;;;;2.08;0.50;;;11.00;99.90;;;;;;5108328;28;20064;-80
2023/03/13 04:14:04;;;;;;;1.25;0.32;;;10.90;99.90;;;;;;5091473;28;20453;-78
2023/03/13 04:16:30;;;;;;;0.82;0.28;;;10.90;99.90;;;;;;5093015;28;20077;-77
2023/03/13 04:18:56;;;;;;;0.40;0.17;;;10.80;99.90;;;;;;5093056;28;20027;-77
2023/03/13 04:21:21;;;;;;;0.40;0.20;;;10.80;99.90;;;;;;5092401;28;20024;-77
2023/03/13 04:23:47;;;;;;;0.95;0.20;;;10.80;99.90;;;;;;5092149;28;20427;-77
2023/03/13 04:26:13;;;;;;;0.68;0.20;;;10.70;99.90;;;;;;5091930;28;20051;-76
2023/03/13 04:28:38;;;;;;;1.00;0.25;;;10.70;99.90;;;;;;5091706;28;20039;-76
2023/03/13 04:31:04;;;;;;;2.05;0.40;;;10.70;99.90;;;;;;5092086;28;20092;-75
2023/03/13 04:33:30;;;;;;;0.30;0.30;;;10.70;99.90;;;;;;5092115;28;20031;-75
2023/03/13 04:35:55;;;;;;;0.75;0.25;;;10.60;99.90;;;;;;5089960;28;20028;-75
2023/03/13 04:38:21;;;;;;;0.73;0.20;;;10.60;99.90;;;;;;5092270;28;20467;-77
2023/03/13 04:40:47;;;;;;;1.73;0.30;;;10.50;99.90;;;;;;5090445;28;20024;-77
2023/03/13 04:43:13;;;;;;;0.68;0.30;;;10.60;99.90;;;;;;5092018;28;20351;-79
2023/03/13 04:45:39;;;;;;;1.67;0.30;;;10.50;99.90;;;;;;5091306;28;20028;-77
2023/03/13 04:48:05;;;;;;;0.63;0.20;;;10.40;99.90;;;;;;5092366;28;20422;-76
2023/03/13 04:50:30;;;;;;;1.70;0.40;;;10.40;99.90;;;;;;5092047;28;20040;-77
2023/03/13 04:52:56;;;;;;;1.60;0.22;;;10.40;99.90;;;;;;5089456;28;20028;-77
2023/03/13 04:55:22;;;;;;;1.48;0.35;;;10.30;99.90;;;;;;5091504;28;20124;-77
2023/03/13 04:57:47;;;;;;;0.85;0.30;;;10.30;99.90;;;;;;5091128;28;20028;-76
2023/03/13 05:00:14;;;;;;;1.17;0.20;;;10.20;99.90;;;;;;5091604;28;20030;-77
2023/03/13 05:02:39;;;;;;;0.95;0.30;;;10.20;99.90;;;;;;5089775;28;20024;-78
2023/03/13 05:05:05;;;;;;;1.50;0.20;;;10.10;99.90;;;;;;5090543;28;20099;-78
2023/03/13 05:07:31;;;;;;;0.40;0.13;;;10.10;99.90;;;;;;5091810;28;20093;-76
2023/03/13 05:09:56;;;;;;;2.08;0.40;;;10.10;99.90;;;;;;5090907;28;20077;-77
2023/03/13 05:12:22;;;;;;;1.33;0.35;;;10.10;99.90;;;;;;5091472;28;20435;-76
2023/03/13 05:14:49;;;;;;;1.90;0.60;;;10.10;99.90;;;;;;5089522;28;20157;-77
2023/03/13 05:17:16;;;;;;;2.20;0.65;;;10.10;99.90;;;;;;5091720;28;20528;-77
2023/03/13 05:19:42;;;;;;;1.77;0.43;;;10.10;99.90;;;;;;5091009;28;20032;-77
2023/03/13 05:22:08;;;;;;;1.75;0.52;;;10.10;99.90;;;;;;5091369;28;20374;-75
2023/03/13 05:24:33;;;;;;;1.42;0.50;;;10.10;99.90;;;;;;5091246;28;20104;-75
2023/03/13 05:26:59;;;;;;;0.80;0.38;;;10.20;99.90;;;;;;5091047;28;20064;-75
2023/03/13 05:29:25;;;;;;;1.20;0.30;;;10.20;99.90;;;;;;5089387;28;20028;-76
2023/03/13 05:31:51;;;;;;;0.82;0.25;;;10.20;99.90;;;;;;5089086;28;20033;-76
2023/03/13 05:34:17;;;;;;;1.10;0.20;;;10.20;99.90;;;;;;5090716;28;20024;-75
2023/03/13 05:36:43;;;;;;;0.70;0.38;;;10.20;99.90;;;;;;5089914;28;20024;-75
2023/03/13 05:39:08;;;;;;;0.10;0.00;;;10.20;99.90;;;;;;5090898;28;20036;-76
2023/03/13 05:41:34;;;;;;;1.10;0.40;;;10.30;99.90;;;;;;5091022;28;20036;-75
2023/03/13 05:44:00;;;;;;;0.55;0.22;;;10.40;99.90;;;;;;5090412;28;20506;-76
2023/03/13 05:46:26;;;;;;;0.77;0.30;;;10.40;99.90;;;;;;5091084;28;20095;-75
2023/03/13 05:48:51;;;;;;;1.70;0.30;;;10.40;99.90;;;;;;5090241;28;20488;-76
2023/03/13 05:51:17;;;;;;;0.40;0.10;;;10.40;99.90;;;;;;5090664;28;20039;-75
2023/03/13 05:53:43;;;;;;;1.15;0.10;;;10.50;99.90;;;;;;5090131;28;20070;-76
2023/03/13 05:56:09;;;;;;;1.02;0.20;;;10.50;99.90;;;;;;5091096;28;20032;-75
2023/03/13 05:58:35;;;;;;;0.65;0.20;;;10.50;99.90;;;;;;5090788;28;20060;-75
2023/03/13 06:01:09;;;;;;;0.90;0.30;;;10.60;99.90;;;;;;5088292;28;20118;-74
2023/03/13 06:03:35;;;;;;;1.15;0.43;;;10.60;99.90;;;;;;5090570;28;20028;-75
2023/03/13 06:06:01;;;;;;;0.90;0.47;;;10.60;99.90;;;;;;5090260;28;20298;-75
2023/03/13 06:08:27;;;;;;;2.90;0.60;;;10.60;99.90;;;;;;5090725;28;20020;-75
2023/03/13 06:10:53;;;;;;;2.15;0.70;;;10.60;99.90;;;;;;5090192;28;20028;-75
2023/03/13 06:13:19;;;;;;;1.92;0.52;;;10.50;99.90;;;;;;5090616;28;20057;-74
2023/03/13 06:15:52;;;;;;;2.35;0.45;;;10.50;99.90;;;;;;5089759;28;20413;-75
2023/03/13 06:18:18;;;;;;;1.23;0.60;;;10.40;99.90;;;;;;5090555;28;20058;-75
2023/03/13 06:20:44;;;;;;;2.13;0.60;;;10.40;99.90;;;;;;5089789;28;20107;-75
2023/03/13 06:23:10;;;;;;;3.08;0.70;;;10.30;99.90;;;;;;5090524;28;20098;-75
2023/03/13 06:25:35;;;;;;;3.47;0.55;;;10.30;99.90;;;;;;5090141;28;20052;-75
2023/03/13 06:28:01;;;;;;;3.85;0.85;;;10.30;99.90;;;;;;5090095;28;20145;-75
2023/03/13 06:30:27;;;;;;;3.30;0.73;;;10.30;99.90;;;;;;5090704;28;20108;-74
2023/03/13 06:32:52;;;;;;;2.90;0.82;;;10.20;99.90;;;;;;5089940;28;20032;-75
2023/03/13 06:35:18;;;;;;;10.48;1.33;;;10.30;99.90;;;;;;5090742;28;20024;-74
2023/03/13 06:37:44;;;;;;;4.68;1.00;;;10.30;99.90;;;;;;5090367;28;20097;-75
2023/03/13 06:40:10;;;;;;;6.10;1.30;;;10.30;99.90;;;;;;5090586;28;20024;-74
2023/03/13 06:42:36;;;;;;;9.75;2.50;;;10.30;99.90;;;;;;5091705;28;20107;-75
2023/03/13 06:45:02;;;;;;;6.82;1.40;;;10.40;99.90;;;;;;5090048;28;20515;-75
2023/03/13 06:47:32;;;;;;;9.13;2.63;;;10.40;99.90;;;;;;5090485;28;20024;-73
2023/03/13 06:49:58;;;;;;;9.15;1.80;;;10.40;99.90;;;;;;5089722;28;20216;-74
2023/03/13 06:52:24;;;;;;;7.18;1.88;;;10.40;99.90;;;;;;5088869;28;20093;-74
2023/03/13 06:54:50;;;;;;;8.27;1.92;;;10.40;99.90;;;;;;5089395;28;20423;-74
2023/03/13 06:57:16;;;;;;;9.20;2.58;;;10.40;99.90;;;;;;5088804;28;20032;-75
2023/03/13 06:59:42;;;;;;;9.95;2.22;;;10.40;99.90;;;;;;5090338;28;20032;-74
2023/03/13 07:02:10;;;;;;;7.78;1.83;;;10.40;99.90;;;;;;5089751;28;20070;-75
2023/03/13 07:04:36;;;;;;;7.68;1.77;;;10.40;99.90;;;;;;5090529;28;20028;-75
2023/03/13 07:07:02;;;;;;;7.15;1.45;;;10.40;99.90;;;;;;5089618;28;20036;-75
2023/03/13 07:09:28;;;;;;;3.83;1.02;;;10.40;99.90;;;;;;5090580;28;20028;-75
2023/03/13 07:11:55;;;;;;;4.97;1.42;;;10.50;99.90;;;;;;5089850;28;20111;-75
2023/03/13 07:14:20;;;;;;;8.52;1.40;;;10.40;99.90;;;;;;5090346;28;20462;-75
2023/03/13 07:16:46;;;;;;;5.97;1.75;;;10.40;99.90;;;;;;5090351;28;20024;-76
2023/03/13 07:19:12;;;;;;;6.85;1.40;;;10.40;99.90;;;;;;5090448;28;20036;-74
2023/03/13 07:21:38;;;;;;;6.15;1.42;;;10.40;99.90;;;;;;5090278;28;20067;-75
2023/03/13 07:24:04;;;;;;;8.77;1.77;;;10.40;99.90;;;;;;5089792;28;20185;-75
2023/03/13 07:26:29;;;;;;;6.07;1.48;;;10.40;99.90;;;;;;5090212;28;20087;-75
2023/03/13 07:28:56;;;;;;;7.63;1.63;;;10.50;99.90;;;;;;5092348;28;20425;-75
2023/03/13 07:31:25;;;;;;;6.00;1.80;;;10.40;99.90;;;;;;5094185;28;20039;-74
2023/03/13 07:33:55;;;;;;;6.57;1.63;;;10.50;99.90;;;;;;5093782;28;20058;-75
2023/03/13 07:36:21;;;;;;;8.43;1.90;;;10.40;99.90;;;;;;5094076;28;20109;-74
2023/03/13 07:38:51;;;;;;;7.40;1.48;;;10.40;99.90;;;;;;5093411;28;20028;-80
2023/03/13 07:41:18;;;;;;;8.65;1.80;;;10.40;99.90;;;;;;5092828;28;20505;-75
2023/03/13 07:43:45;;;;;;;7.30;1.75;;;10.50;99.90;;;;;;5093794;28;20055;-75
2023/03/13 07:46:19;;;;;;;10.80;2.28;;;10.60;99.90;;;;;;5093845;28;20028;-75
2023/03/13 07:48:45;;;;;;;10.15;1.88;;;10.60;99.90;;;;;;5093930;28;20032;-75
2023/03/13 07:51:15;;;;;;;7.50;1.75;;;10.70;99.90;;;;;;5092791;28;20099;-75
2023/03/13 07:53:41;;;;;;;8.90;2.08;;;10.70;99.90;;;;;;5093050;28;20036;-74
2023/03/13 07:56:12;;;;;;;8.60;1.98;;;10.80;99.90;;;;;;5092136;28;20072;-75
2023/03/13 07:58:40;;;;;;;13.38;2.33;;;10.80;99.90;;;;;;5093018;28;20458;-74
2023/03/13 08:01:16;;;;;;;9.27;2.20;;;10.90;99.90;;;;;;5092575;28;20024;-74
2023/03/13 08:03:43;;;;;;;9.63;2.85;;;10.90;99.90;;;;;;5093160;28;20029;-74
2023/03/13 08:06:13;;;;;;;15.02;3.28;;;11.10;99.90;;;;;;5090756;28;20115;-75
2023/03/13 08:08:40;;;;;;;16.33;2.85;;;11.20;99.90;;;;;;5092686;28;20031;-74
2023/03/13 08:11:13;;;;;;;17.27;3.08;;;11.40;99.90;;;;;;5090827;28;20027;-74
2023/03/13 08:13:41;;;;;;;16.27;3.60;;;11.50;99.90;;;;;;5093058;28;20027;-74
2023/03/13 08:16:12;;;;;;;21.88;4.13;;;11.50;99.90;;;;;;5091783;28;20360;-75
2023/03/13 08:18:40;;;;;;;22.77;4.35;;;11.40;99.90;;;;;;5091395;28;20039;-75
2023/03/13 08:21:09;;;;;;;19.65;4.05;;;11.40;99.90;;;;;;5092112;28;20055;-75
2023/03/13 08:23:35;;;;;;;25.02;4.72;;;11.30;99.90;;;;;;5092472;28;20028;-74
2023/03/13 08:26:12;;;;;;;19.85;4.35;;;11.20;99.90;;;;;;5090482;28;20437;-75
2023/03/13 08:28:38;;;;;;;21.45;4.40;;;11.10;99.90;;;;;;5092734;28;20028;-74
2023/03/13 08:31:12;;;;;;;28.85;4.50;;;11.10;99.90;;;;;;5091684;28;20530;-74
2023/03/13 08:33:39;;;;;;;22.00;4.35;;;11.10;99.90;;;;;;5092479;28;20133;-75
2023/03/13 08:36:17;;;;;;;24.67;4.25;;;11.00;99.90;;;;;;5091565;28;20047;-75
2023/03/13 08:38:44;;;;;;;21.35;4.07;;;11.10;99.90;;;;;;5091589;28;20032;-75
2023/03/13 08:41:15;;;;;;;24.42;4.53;;;11.10;99.90;;;;;;5091640;28;20035;-75
2023/03/13 08:43:41;;;;;;;24.20;5.00;;;11.10;99.90;;;;;;5090741;28;20415;-75
2023/03/13 08:46:07;;;;;;;27.65;4.47;;;11.20;99.90;;;;;;5091561;28;20031;-74
2023/03/13 08:48:33;;;;;;;22.42;4.50;;;11.20;99.90;;;;;;5095009;28;20125;-74
2023/03/13 08:51:08;;;;;;;21.40;4.18;;;11.30;99.90;;;;;;5093630;28;20024;-74
2023/03/13 08:53:35;;;;;;;23.60;4.00;;;11.30;99.90;;;;;;5092013;28;20044;-74
2023/03/13 08:56:01;;;;;;;22.17;4.47;;;11.40;99.90;;;;;;5090936;28;20040;-76
2023/03/13 08:58:27;;;;;;;20.40;4.35;;;11.60;99.90;;;;;;5099737;28;20382;-76
2023/03/13 09:00:54;;;;;;;26.10;3.97;;;11.60;99.90;;;;;;5090106;28;20028;-77
2023/03/13 09:03:20;;;;;;;19.08;3.53;;;11.60;99.90;;;;;;5112575;27;20102;-74
2023/03/13 09:05:46;;;;;;;19.55;4.05;;;11.60;99.90;;;;;;5112119;28;20087;-74
2023/03/13 09:08:14;;;;;;;23.77;4.68;;;11.60;99.90;;;;;;5111632;28;20024;-74
2023/03/13 09:10:39;;;;;;;21.05;4.20;;;11.60;99.90;;;;;;5112567;28;20070;-75
2023/03/13 09:13:05;;;;;;;22.80;4.18;;;11.70;99.90;;;;;;5111633;28;20051;-75
2023/03/13 09:15:31;;;;;;;15.43;3.67;;;11.70;99.90;;;;;;5111932;28;20106;-74
2023/03/13 09:17:57;;;;;;;16.83;3.63;;;11.70;99.90;;;;;;5111223;28;20427;-75
2023/03/13 09:20:22;;;;;;;20.50;4.07;;;11.70;99.90;;;;;;5111512;28;20020;-75
2023/03/13 09:22:48;;;;;;;13.35;2.72;;;11.70;99.90;;;;;;5110293;28;20053;-75
2023/03/13 09:25:14;;;;;;;13.75;2.83;;;11.60;99.90;;;;;;5111300;28;20020;-75
2023/03/13 09:27:40;;;;;;;13.13;3.42;;;11.70;99.90;;;;;;5111566;28;20023;-75
2023/03/13 09:30:06;;;;;;;18.55;3.35;;;11.70;99.90;;;;;;5111172;28;20457;-76
2023/03/13 09:32:32;;;;;;;13.82;3.63;;;11.80;99.90;;;;;;5111457;28;20114;-75
2023/03/13 09:34:58;;;;;;;16.60;3.70;;;11.90;99.90;;;;;;5111203;28;20065;-75
2023/03/13 09:37:24;;;;;;;15.50;2.90;;;12.00;99.90;;;;;;5111079;28;20039;-74
2023/03/13 09:39:50;;;;;;;12.40;2.50;;;12.00;99.90;;;;;;5111265;28;20066;-74
2023/03/13 09:42:18;;;;;;;14.93;2.70;;;12.10;99.90;;;;;;5110974;28;20059;-74
2023/03/13 09:44:48;;;;;;;11.05;2.42;;;12.20;99.90;;;;;;5111435;28;20028;-74
2023/03/13 09:47:23;;;;;;;11.65;2.63;;;12.20;99.90;;;;;;5110828;28;20031;-74
2023/03/13 09:50:13;;;;;;;10.98;2.60;;;12.30;99.90;;;;;;5110957;28;20465;-74
2023/03/13 09:52:40;;;;;;;10.88;2.58;;;12.40;99.90;;;;;;5111214;28;20365;-75
2023/03/13 09:55:29;;;;;;;10.57;2.10;;;12.60;99.90;;;;;;5110656;28;20111;-75
2023/03/13 09:58:09;;;;;;;10.30;1.80;;;12.70;99.90;;;;;;5109645;28;20039;-80
2023/03/13 10:00:38;;;;;;;8.25;1.83;;;12.80;99.90;;;;;;5109683;28;20076;-75
2023/03/13 10:03:10;;;;;;;8.27;1.70;;;12.80;99.90;;;;;;5110847;28;20030;-75
2023/03/13 10:05:42;;;;;;;6.15;1.40;;;12.80;99.90;;;;;;5110866;28;20067;-75
2023/03/13 10:08:18;;;;;;;4.22;1.30;;;12.80;99.90;;;;;;5110821;28;20515;-75
2023/03/13 10:11:06;;;;;;;5.28;1.40;;;12.70;99.90;;;;;;5111075;28;20033;-75
2023/03/13 10:13:37;;;;;;;4.70;1.73;;;12.60;99.90;;;;;;5111066;28;20111;-75
2023/03/13 10:16:33;;;;;;;4.45;1.10;;;12.60;99.90;;;;;;5110579;28;20425;-75
2023/03/13 10:19:15;;;;;;;2.20;0.85;;;12.50;99.90;;;;;;5109446;28;20489;-76
2023/03/13 10:21:44;;;;;;;2.95;1.10;;;12.50;99.90;;;;;;5110996;28;20089;-75
2023/03/13 10:24:18;;;;;;;3.33;1.00;;;12.50;99.90;;;;;;5110407;28;20042;-76
2023/03/13 10:26:44;;;;;;;4.35;0.98;;;12.50;99.90;;;;;;5110859;28;20088;-76
2023/03/13 10:29:30;;;;;;;3.67;0.88;;;12.50;99.90;;;;;;5110418;28;20323;-75
2023/03/13 10:32:01;;;;;;;2.97;0.77;;;12.50;99.90;;;;;;5110688;28;20092;-75
2023/03/13 10:34:43;;;;;;;2.22;0.80;;;12.50;99.90;;;;;;5111021;28;20365;-74
2023/03/13 10:37:13;;;;;;;4.88;1.23;;;12.50;99.90;;;;;;5110023;28;20398;-74
2023/03/13 10:39:39;;;;;;;1.35;0.70;;;12.60;99.90;;;;;;5111182;28;20035;-73
2023/03/13 10:42:27;;;;;;;1.67;0.60;;;12.60;99.90;;;;;;5110611;28;20049;-75
2023/03/13 10:45:02;;;;;;;2.30;0.60;;;12.70;99.90;;;;;;5111066;28;20032;-75
2023/03/13 10:47:32;;;;;;;2.78;0.60;;;12.80;99.90;;;;;;5110484;28;20027;-75
2023/03/13 10:49:58;;;;;;;1.10;0.70;;;12.90;99.90;;;;;;5110668;28;20027;-80
2023/03/13 10:52:30;;;;;;;2.13;0.50;;;12.90;99.90;;;;;;5108957;28;20319;-75
2023/03/13 10:55:04;;;;;;;2.10;0.60;;;12.90;99.90;;;;;;5108925;28;20032;-75
2023/03/13 10:57:35;;;;;;;0.70;0.50;;;12.80;99.90;;;;;;5110563;28;20145;-73
2023/03/13 11:00:39;;;;;;;1.67;0.85;;;12.80;99.90;;;;;;5110250;28;20028;-77
2023/03/13 11:03:25;;;;;;;1.80;0.40;;;12.90;99.90;;;;;;5090331;28;20032;-74
2023/03/13 11:05:59;;;;;;;0.63;0.30;;;13.10;99.90;;;;;;5112444;28;20343;-74
2023/03/13 11:08:27;;;;;;;2.58;0.45;;;13.30;99.90;;;;;;5114695;27;20024;-74
2023/03/13 11:11:03;;;;;;;0.82;0.30;;;13.30;99.90;;;;;;5114192;28;20032;-74
2023/03/13 11:13:36;;;;;;;2.30;0.32;;;13.30;99.90;;;;;;5114312;28;20038;-74
2023/03/13 11:16:21;;;;;;;0.70;0.35;;;13.10;99.90;;;;;;5113952;28;20063;-79
2023/03/13 11:19:08;;;;;;;0.82;0.38;;;13.10;99.90;;;;;;5114063;28;20135;-74
2023/03/13 11:22:02;;;;;;;1.13;0.40;;;13.00;99.90;;;;;;5114088;28;20427;-74
2023/03/13 11:24:31;;;;;;;1.58;0.30;;;13.00;99.90;;;;;;5113832;28;20127;-74
2023/03/13 11:27:22;;;;;;;1.35;0.57;;;12.90;99.90;;;;;;5113801;28;20048;-75
2023/03/13 11:30:05;;;;;;;5.53;0.60;;;12.90;99.90;;;;;;5114038;28;20027;-74
2023/03/13 11:32:52;;;;;;;1.35;0.30;;;13.00;99.90;;;;;;5114157;28;20407;-74
2023/03/13 11:35:40;;;;;;;0.43;0.40;;;13.20;99.90;;;;;;5113282;28;20032;-74
2023/03/13 11:38:17;;;;;;;1.15;1.05;;;13.30;99.90;;;;;;5113309;28;20526;-75
2023/03/13 11:40:55;;;;;;;1.95;0.40;;;13.50;99.90;;;;;;5113758;28;20482;-74
2023/03/13 11:43:54;;;;;;;0.70;0.50;;;13.40;99.90;;;;;;5113086;28;20739;-74
2023/03/13 11:46:25;;;;;;;1.02;0.40;;;13.50;99.90;;;;;;5113270;28;20032;-74
2023/03/13 11:49:20;;;;;;;1.67;0.43;;;13.50;99.90;;;;;;5113651;28;20034;-74
2023/03/13 11:52:11;;;;;;;1.38;0.38;;;13.60;99.90;;;;;;5113327;28;20027;-74
2023/03/13 11:54:39;;;;;;;0.80;0.70;;;13.60;99.90;;;;;;5113541;28;20055;-74
2023/03/13 11:57:12;;;;;;;0.75;0.40;;;13.60;99.90;;;;;;5112748;28;20024;-79
2023/03/13 11:59:38;;;;;;;0.57;0.52;;;13.60;99.90;;;;;;5101818;27;20038;-74
2023/03/13 12:02:13;;;;;;;0.65;0.50;;;13.60;99.90;;;;;;5092612;28;20102;-79
2023/03/13 12:04:53;;;;;;;0.68;0.30;;;13.80;99.90;;;;;;5092490;28;20020;-74
2023/03/13 12:07:28;;;;;;;3.10;0.63;;;13.90;99.90;;;;;;5092542;28;20036;-75
2023/03/13 12:09:59;;;;;;;0.73;0.25;;;14.00;99.90;;;;;;5092343;28;20024;-75
2023/03/13 12:12:33;;;;;;;1.38;0.43;;;14.00;99.90;;;;;;5090863;28;20050;-74
2023/03/13 12:15:14;;;;;;;3.05;0.47;;;14.10;99.90;;;;;;5092013;28;20036;-74
2023/03/13 12:17:46;;;;;;;2.15;0.63;;;14.10;99.90;;;;;;5092604;28;20035;-75
2023/03/13 12:20:26;;;;;;;3.00;0.50;;;14.20;99.90;;;;;;5091962;28;20491;-75
2023/03/13 12:23:03;;;;;;;3.42;0.93;;;14.20;99.90;;;;;;5092125;28;20481;-75
2023/03/13 12:25:43;;;;;;;3.50;1.10;;;14.30;99.90;;;;;;5091824;28;20069;-75
2023/03/13 12:28:28;;;;;;;4.38;0.70;;;14.30;99.90;;;;;;5092294;28;20137;-75
2023/03/13 12:31:09;;;;;;;2.22;0.82;;;14.20;99.90;;;;;;5092524;28;20467;-75
2023/03/13 12:33:41;;;;;;;3.10;1.10;;;14.40;99.90;;;;;;5090716;28;20020;-75
2023/03/13 12:36:47;;;;;;;5.10;1.13;;;14.50;99.90;;;;;;5094668;28;20124;-79
2023/03/13 12:39:49;;;;;;;2.95;0.95;;;14.80;99.90;;;;;;5112251;28;20031;-75
2023/03/13 12:42:37;;;;;;;3.97;0.83;;;15.00;99.90;;;;;;5112374;28;20034;-76
2023/03/13 12:45:05;;;;;;;4.55;1.10;;;15.00;99.90;;;;;;5112931;28;20049;-74
2023/03/13 12:47:47;;;;;;;4.07;1.10;;;14.90;99.90;;;;;;5112437;27;20119;-75
2023/03/13 12:50:22;;;;;;;3.50;1.30;;;14.80;99.90;;;;;;5112683;28;20103;-75
2023/03/13 12:52:48;;;;;;;4.88;1.23;;;14.80;99.90;;;;;;5111440;28;20062;-75
2023/03/13 12:55:17;;;;;;;5.13;1.10;;;14.70;99.90;;;;;;5111806;28;20063;-75
2023/03/13 12:57:52;;;;;;;6.63;1.30;;;14.80;99.90;;;;;;5112149;28;20039;-74
2023/03/13 13:00:25;;;;;;;7.82;1.38;;;14.90;99.90;;;;;;5111706;28;20115;-75